Time;durP1;ratioP1;P1;durP2;ratioP2;P2;SDS_P1;SDS_P2;PMS_P1;PMS_P2;Temp;Humidity;BMP_temperature;BMP_pressure;BME280_temperature;BME280_humidity;BME280_pressure;Samples;Min_cycle;Max_cycle;Signal;HPM_P1;HPM_P2
2022/02/26 00:00:07;;;;;;;0.60;0.60;;;;;;;1.91;77.10;98120.97;29373;237;63009;-67
2022/02/26 00:00:39;;;;;;;0.60;0.60;;;;;;;1.88;77.41;98121.38;29373;266;63004;-60
2022/02/26 00:01:11;;;;;;;0.60;0.60;;;;;;;1.87;77.54;98119.75;29373;279;63009;-66
2022/02/26 00:01:44;;;;;;;1.20;1.20;;;;;;;1.86;77.68;98120.78;29373;218;63004;-63
2022/02/26 00:02:16;;;;;;;0.60;0.60;;;;;;;1.87;77.75;98125.09;29373;211;63008;-66
2022/02/26 00:02:51;;;;;;;0.60;0.60;;;;;;;1.81;77.52;98125.91;29373;281;63005;-65
2022/02/26 00:03:23;;;;;;;0.60;0.60;;;;;;;1.78;77.82;98120.97;29371;268;64009;-62
2022/02/26 00:03:55;;;;;;;0.60;0.60;;;;;;;1.74;77.84;98130.44;29373;264;63010;-65
2022/02/26 00:04:26;;;;;;;0.60;0.60;;;;;;;1.72;78.43;98129.84;29373;223;63009;-67
2022/02/26 00:04:59;;;;;;;0.65;0.65;;;;;;;1.68;78.42;98125.94;29371;235;64005;-65
2022/02/26 00:05:32;;;;;;;0.60;0.60;;;;;;;1.65;78.48;98124.50;29373;234;63009;-65
2022/02/26 00:06:05;;;;;;;0.60;0.60;;;;;;;1.66;78.81;98128.81;29373;261;63005;-65
2022/02/26 00:06:37;;;;;;;0.60;0.60;;;;;;;1.66;78.89;98128.00;29373;245;63009;-66
2022/02/26 00:07:09;;;;;;;0.60;0.60;;;;;;;1.69;78.49;98127.59;29373;231;63008;-67
2022/02/26 00:07:40;;;;;;;0.60;0.60;;;;;;;1.72;78.50;98127.19;29373;264;63009;-65
2022/02/26 00:08:12;;;;;;;0.60;0.60;;;;;;;1.74;78.32;98119.75;29373;210;63004;-67
2022/02/26 00:08:45;;;;;;;0.50;0.50;;;;;;;1.77;78.27;98130.03;29373;213;63009;-64
2022/02/26 00:09:17;;;;;;;0.60;0.60;;;;;;;1.78;78.30;98126.31;29373;230;63004;-65
2022/02/26 00:09:50;;;;;;;0.60;0.60;;;;;;;1.80;77.84;98129.62;29371;209;64008;-65
2022/02/26 00:10:25;;;;;;;0.62;0.62;;;;;;;1.82;77.80;98132.91;29373;235;63005;-57
2022/02/26 00:10:59;;;;;;;0.60;0.60;;;;;;;1.84;77.49;98130.84;29373;211;63009;-65
2022/02/26 00:11:33;;;;;;;0.60;0.60;;;;;;;1.78;77.76;98131.69;29373;245;63010;-66
2022/02/26 00:12:05;;;;;;;0.60;0.60;;;;;;;1.75;77.87;98142.78;29373;203;63009;-58
2022/02/26 00:12:39;;;;;;;0.60;0.60;;;;;;;1.77;77.87;98135.38;29373;224;63005;-66
2022/02/26 00:13:12;;;;;;;0.60;0.60;;;;;;;1.79;77.84;98138.69;29373;228;63009;-60
2022/02/26 00:13:44;;;;;;;0.60;0.60;;;;;;;1.82;77.68;98127.56;29373;220;63005;-66
2022/02/26 00:14:18;;;;;;;0.60;0.60;;;;;;;1.85;77.48;98137.84;29371;209;64009;-63
2022/02/26 00:14:53;;;;;;;0.60;0.60;;;;;;;1.86;77.52;98139.50;29373;215;63008;-66
2022/02/26 00:15:25;;;;;;;0.60;0.60;;;;;;;1.89;77.64;98138.28;29373;228;63009;-63
2022/02/26 00:15:58;;;;;;;0.50;0.50;;;;;;;1.88;77.25;98137.44;29373;205;63004;-64
2022/02/26 00:16:32;;;;;;;0.60;0.60;;;;;;;1.86;77.58;98139.50;29371;255;64009;-66
2022/02/26 00:17:04;;;;;;;0.60;0.60;;;;;;;1.84;77.57;98148.78;29373;220;63009;-58
2022/02/26 00:17:37;;;;;;;0.60;0.60;;;;;;;1.90;77.61;98142.59;29373;248;63009;-58
2022/02/26 00:18:09;;;;;;;0.60;0.60;;;;;;;1.94;77.14;98136.63;29373;202;63005;-62
2022/02/26 00:18:41;;;;;;;0.60;0.60;;;;;;;1.92;77.14;98138.69;29373;217;63009;-63
2022/02/26 00:19:17;;;;;;;0.60;0.60;;;;;;;1.88;77.30;98148.16;29373;202;63005;-67
2022/02/26 00:19:50;;;;;;;0.60;0.60;;;;;;;1.84;77.58;98141.56;29371;199;64002;-69
2022/02/26 00:20:22;;;;;;;0.60;0.60;;;;;;;1.84;77.93;98146.91;29373;233;63005;-60
2022/02/26 00:20:56;;;;;;;0.60;0.60;;;;;;;1.88;77.35;98142.81;29371;249;64009;-60
2022/02/26 00:21:29;;;;;;;0.60;0.60;;;;;;;1.87;77.25;98138.47;29373;214;63008;-66
2022/02/26 00:22:02;;;;;;;0.60;0.60;;;;;;;1.84;77.83;98146.91;29373;209;63024;-63
2022/02/26 00:22:35;;;;;;;0.60;0.60;;;;;;;1.85;77.48;98143.22;29373;204;63010;-66
2022/02/26 00:23:07;;;;;;;0.60;0.60;;;;;;;1.81;77.78;98141.16;29373;242;63009;-63
2022/02/26 00:23:43;;;;;;;0.60;0.60;;;;;;;1.82;77.72;98148.97;29373;205;63004;-62
2022/02/26 00:24:16;;;;;;;0.60;0.60;;;;;;;1.82;77.78;98148.16;29373;284;63008;-63
2022/02/26 00:24:48;;;;;;;0.60;0.60;;;;;;;1.84;77.60;98146.91;29373;206;63008;-61
2022/02/26 00:25:22;;;;;;;0.60;0.60;;;;;;;1.84;77.88;98146.09;29373;207;63009;-69
2022/02/26 00:25:55;;;;;;;0.60;0.60;;;;;;;1.85;78.01;98148.56;29371;238;64005;-61
2022/02/26 00:26:27;;;;;;;0.60;0.60;;;;;;;1.87;77.89;98151.88;29373;209;63009;-61
2022/02/26 00:27:02;;;;;;;0.60;0.60;;;;;;;1.92;77.85;98149.37;29373;203;63005;-60
2022/02/26 00:27:34;;;;;;;1.35;1.35;;;;;;;1.93;77.55;98151.03;29373;231;63028;-68
2022/02/26 00:28:08;;;;;;;0.60;0.60;;;;;;;1.94;77.65;98150.00;29373;202;63005;-56
2022/02/26 00:28:39;;;;;;;0.60;0.60;;;;;;;1.94;77.53;98150.00;29373;227;63009;-62
2022/02/26 00:29:13;;;;;;;0.60;0.60;;;;;;;1.90;77.54;98140.75;29373;236;63005;-61
2022/02/26 00:29:44;;;;;;;0.60;0.60;;;;;;;1.87;77.61;98154.53;29373;203;63009;-62
2022/02/26 00:30:16;;;;;;;0.80;0.80;;;;;;;1.85;77.71;98153.09;29373;224;63004;-61
2022/02/26 00:30:49;;;;;;;0.60;0.60;;;;;;;1.88;77.57;98152.69;29373;210;63009;-57
2022/02/26 00:31:21;;;;;;;0.60;0.60;;;;;;;1.89;77.66;98149.81;29371;210;64004;-60
2022/02/26 00:31:54;;;;;;;0.60;0.60;;;;;;;1.90;77.41;98140.75;29373;245;63008;-68
2022/02/26 00:32:26;;;;;;;0.90;0.90;;;;;;;1.88;77.68;98145.47;29373;205;63004;-60
2022/02/26 00:32:57;;;;;;;0.60;0.60;;;;;;;1.85;77.85;98151.25;29373;264;63009;-67
2022/02/26 00:33:28;;;;;;;0.60;0.60;;;;;;;1.84;78.12;98154.94;29371;203;64005;-62
2022/02/26 00:34:00;;;;;;;0.50;0.50;;;;;;;1.85;78.11;98153.09;29373;283;63009;-61
2022/02/26 00:34:32;;;;;;;0.60;0.60;;;;;;;1.85;77.94;98156.59;29373;273;63005;-62
2022/02/26 00:35:05;;;;;;;0.60;0.60;;;;;;;1.86;78.06;98155.56;29373;267;63009;-64
2022/02/26 00:35:37;;;;;;;0.65;0.65;;;;;;;1.90;77.96;98151.44;29371;251;64005;-64
2022/02/26 00:36:09;;;;;;;0.70;0.70;;;;;;;1.91;77.59;98153.09;29373;216;63009;-62
2022/02/26 00:36:40;;;;;;;0.60;0.60;;;;;;;1.91;77.95;98152.28;29373;291;63005;-61
2022/02/26 00:37:12;;;;;;;0.60;0.60;;;;;;;1.92;77.63;98153.91;29373;213;63009;-64
2022/02/26 00:37:44;;;;;;;0.60;0.60;;;;;;;1.92;77.88;98152.06;29373;222;63004;-69
2022/02/26 00:38:16;;;;;;;0.60;0.60;;;;;;;1.94;77.58;98152.69;29371;220;64009;-65
2022/02/26 00:38:50;;;;;;;0.60;0.60;;;;;;;1.92;77.77;98152.06;29373;253;63004;-57
2022/02/26 00:39:22;;;;;;;0.60;0.60;;;;;;;1.94;77.64;98168.75;29373;225;63008;-59
2022/02/26 00:39:53;;;;;;;0.60;0.60;;;;;;;1.91;77.60;98157.63;29373;211;63004;-59
2022/02/26 00:40:25;;;;;;;0.60;0.60;;;;;;;1.92;77.90;98157.41;29373;220;63009;-61
2022/02/26 00:40:57;;;;;;;0.60;0.60;;;;;;;1.88;77.94;98164.22;29373;215;63005;-62
2022/02/26 00:41:29;;;;;;;0.60;0.60;;;;;;;1.88;77.99;98161.53;29373;270;63009;-58
2022/02/26 00:42:01;;;;;;;0.60;0.60;;;;;;;1.89;77.88;98159.69;29371;266;64005;-64
2022/02/26 00:42:33;;;;;;;0.60;0.60;;;;;;;1.90;77.92;98167.50;29373;197;63009;-57
2022/02/26 00:43:04;;;;;;;0.60;0.60;;;;;;;1.93;77.67;98161.75;29373;232;63005;-62
2022/02/26 00:43:37;;;;;;;0.60;0.60;;;;;;;1.97;77.72;98162.16;29373;197;63009;-62
2022/02/26 00:44:09;;;;;;;0.60;0.60;;;;;;;1.98;77.31;98161.94;29373;213;63008;-62
2022/02/26 00:44:42;;;;;;;0.60;0.60;;;;;;;1.97;77.26;98165.66;29373;224;63009;-64
2022/02/26 00:45:14;;;;;;;0.60;0.60;;;;;;;1.93;77.56;98156.41;29373;214;63004;-63
2022/02/26 00:45:45;;;;;;;0.60;0.60;;;;;;;1.95;77.61;98172.25;29373;210;63019;-60
2022/02/26 00:46:17;;;;;;;0.60;0.60;;;;;;;1.93;77.57;98164.41;29373;218;63004;-65
2022/02/26 00:46:50;;;;;;;0.60;0.60;;;;;;;1.93;77.67;98169.78;29373;278;63009;-51
2022/02/26 00:47:23;;;;;;;0.60;0.60;;;;;;;1.97;77.64;98168.34;29371;262;64004;-63
2022/02/26 00:47:54;;;;;;;0.60;0.60;;;;;;;1.96;77.61;98166.69;29373;237;63009;-65
2022/02/26 00:50:06;;;;;;;0.60;0.60;;;;;;;1.99;77.55;98168.12;29373;215;63005;-58
2022/02/26 00:50:38;;;;;;;0.70;0.70;;;;;;;2.03;77.22;98171.22;29373;212;63009;-62
2022/02/26 00:51:13;;;;;;;0.60;0.60;;;;;;;2.01;77.48;98168.75;29373;202;63009;-62
2022/02/26 00:51:44;;;;;;;0.60;0.60;;;;;;;1.96;77.38;98161.34;29373;199;63009;-69
2022/02/26 00:52:29;;;;;;;0.60;0.60;;;;;;;1.93;77.53;98167.09;29371;203;64004;-63
2022/02/26 00:53:00;;;;;;;0.60;0.60;;;;;;;1.98;77.32;98164.63;29373;211;63009;-60
2022/02/26 00:53:32;;;;;;;0.70;0.70;;;;;;;1.96;77.41;98172.03;29371;197;64004;-60
2022/02/26 00:54:04;;;;;;;2.05;1.95;;;;;;;1.96;77.51;98177.41;29371;246;64009;-63
2022/02/26 00:54:35;;;;;;;0.70;0.70;;;;;;;1.96;77.75;98171.22;29373;233;63004;-65
2022/02/26 00:55:11;;;;;;;0.60;0.60;;;;;;;1.97;77.53;98179.03;29373;220;63008;-64
2022/02/26 00:55:43;;;;;;;0.62;0.62;;;;;;;1.97;77.43;98179.03;29373;240;63005;-67
2022/02/26 00:56:16;;;;;;;0.60;0.60;;;;;;;1.94;77.59;98176.78;29373;226;63009;-63
2022/02/26 00:56:48;;;;;;;1.00;1.00;;;;;;;1.94;77.88;98181.31;29373;210;63005;-59
2022/02/26 00:57:20;;;;;;;0.60;0.60;;;;;;;1.94;77.47;98179.44;29373;213;63009;-60
2022/02/26 00:57:51;;;;;;;0.60;0.60;;;;;;;1.97;77.31;98183.56;29373;212;63005;-62
2022/02/26 00:58:22;;;;;;;1.00;1.00;;;;;;;1.98;77.35;98180.69;29373;254;63009;-67
2022/02/26 00:58:55;;;;;;;0.65;0.65;;;;;;;1.94;77.56;98184.81;29373;224;63004;-63
2022/02/26 00:59:28;;;;;;;0.60;0.60;;;;;;;1.91;77.51;98185.22;29371;246;64009;-64
2022/02/26 00:59:59;;;;;;;0.60;0.60;;;;;;;1.91;77.54;98189.75;29373;230;63004;-65
2022/02/26 01:00:32;;;;;;;1.42;1.42;;;;;;;1.92;77.48;98188.72;29373;196;63009;-64
2022/02/26 01:01:04;;;;;;;0.60;0.60;;;;;;;1.93;77.74;98191.19;29373;271;63004;-61
2022/02/26 01:01:37;;;;;;;0.60;0.60;;;;;;;1.98;77.37;98196.75;29373;198;63008;-67
2022/02/26 01:02:09;;;;;;;0.60;0.60;;;;;;;1.99;77.47;98187.69;29373;263;63004;-67
2022/02/26 01:02:46;;;;;;;0.60;0.60;;;;;;;1.98;77.40;98195.94;29373;230;63008;-60
2022/02/26 01:03:17;;;;;;;0.60;0.60;;;;;;;2.00;77.23;98188.50;29373;197;63005;-62
2022/02/26 01:03:49;;;;;;;0.60;0.60;;;;;;;1.97;77.18;98189.75;29371;197;64009;-61
2022/02/26 01:04:24;;;;;;;0.60;0.60;;;;;;;1.97;77.52;98195.09;29373;250;63005;-61
2022/02/26 01:04:56;;;;;;;0.70;0.70;;;;;;;2.01;77.35;98193.66;29373;222;63009;-68
2022/02/26 01:05:28;;;;;;;0.60;0.60;;;;;;;1.99;77.36;98190.38;29373;244;63005;-65
2022/02/26 01:06:02;;;;;;;0.60;0.60;;;;;;;1.99;77.55;98195.72;29373;240;63009;-63
2022/02/26 01:06:37;;;;;;;0.70;0.70;;;;;;;1.98;77.27;98199.44;29373;203;63004;-64
2022/02/26 01:07:08;;;;;;;0.65;0.65;;;;;;;1.99;77.39;98195.72;29373;227;63009;-63
2022/02/26 01:07:40;;;;;;;0.60;0.60;;;;;;;2.04;77.05;98195.09;29373;254;63004;-65
2022/02/26 01:08:12;;;;;;;0.60;0.60;;;;;;;2.04;77.00;98202.31;29373;252;63009;-58
2022/02/26 01:08:44;;;;;;;0.60;0.60;;;;;;;2.00;77.13;98200.03;29371;231;64004;-66
2022/02/26 01:09:15;;;;;;;0.60;0.60;;;;;;;1.97;76.92;98199.63;29373;216;63019;-59
2022/02/26 01:09:53;;;;;;;0.60;0.60;;;;;;;1.97;77.30;98200.47;29371;212;64005;-64
2022/02/26 01:10:27;;;;;;;0.55;0.55;;;;;;;1.97;77.54;98191.59;29373;206;63009;-60
2022/02/26 01:10:59;;;;;;;0.60;0.60;;;;;;;2.00;77.05;98193.88;29373;278;63005;-59
2022/02/26 01:11:31;;;;;;;0.70;0.70;;;;;;;2.00;77.33;98199.22;29373;202;63009;-64
2022/02/26 01:12:04;;;;;;;0.60;0.60;;;;;;;2.01;77.05;98200.88;29373;208;63005;-65
2022/02/26 01:12:36;;;;;;;0.60;0.60;;;;;;;2.01;76.99;98196.34;29373;209;63013;-67
2022/02/26 01:13:08;;;;;;;0.60;0.60;;;;;;;2.03;76.80;98198.81;29373;212;63005;-64
2022/02/26 01:13:41;;;;;;;0.60;0.60;;;;;;;2.00;77.03;98199.22;29373;202;63013;-58
2022/02/26 01:14:13;;;;;;;0.60;0.60;;;;;;;2.02;77.02;98197.16;29373;227;63004;-57
2022/02/26 01:14:45;;;;;;;0.75;0.75;;;;;;;2.01;76.84;98204.38;29373;223;63009;-57
2022/02/26 01:15:16;;;;;;;0.60;0.60;;;;;;;2.04;76.85;98199.63;29371;202;64004;-66
2022/02/26 01:15:48;;;;;;;0.60;0.60;;;;;;;1.99;77.02;98201.06;29373;209;63009;-66
2022/02/26 01:16:24;;;;;;;0.60;0.60;;;;;;;2.00;77.20;98200.03;29373;218;63004;-59
2022/02/26 01:16:55;;;;;;;0.60;0.60;;;;;;;1.96;77.25;98204.16;29373;216;63008;-60
2022/02/26 01:17:26;;;;;;;0.60;0.60;;;;;;;1.96;77.40;98204.16;29373;230;63001;-58
2022/02/26 01:17:59;;;;;;;0.60;0.60;;;;;;;2.03;76.86;98203.34;29373;207;63009;-60
2022/02/26 01:18:30;;;;;;;0.70;0.70;;;;;;;2.09;76.58;98197.13;29373;227;63005;-54
2022/02/26 01:19:03;;;;;;;0.60;0.60;;;;;;;2.09;76.42;98197.13;29373;260;63009;-57
2022/02/26 01:19:35;;;;;;;0.80;0.80;;;;;;;2.06;76.72;98201.09;29371;210;64005;-62
2022/02/26 01:20:09;;;;;;;0.80;0.80;;;;;;;2.04;76.86;98197.78;29373;198;63018;-59
2022/02/26 01:20:40;;;;;;;0.60;0.60;;;;;;;2.06;76.60;98206.44;29373;219;63005;-57
2022/02/26 01:21:12;;;;;;;0.60;0.60;;;;;;;2.05;76.77;98201.28;29373;219;63009;-57
2022/02/26 01:21:45;;;;;;;0.60;0.60;;;;;;;2.04;76.75;98200.47;29373;210;63004;-61
2022/02/26 01:22:17;;;;;;;0.60;0.60;;;;;;;2.01;77.08;98200.88;29373;273;63009;-64
2022/02/26 01:22:50;;;;;;;0.60;0.60;;;;;;;2.01;76.92;98198.19;29373;214;63004;-61
2022/02/26 01:23:23;;;;;;;0.60;0.60;;;;;;;2.02;76.79;98199.84;29371;197;64009;-61
2022/02/26 01:23:54;;;;;;;0.60;0.60;;;;;;;2.00;76.71;98193.88;29373;270;63004;-62
2022/02/26 01:24:26;;;;;;;0.60;0.60;;;;;;;2.00;76.96;98202.72;29373;264;63008;-67
2022/02/26 01:24:58;;;;;;;0.70;0.70;;;;;;;2.00;77.04;98200.03;29373;248;63005;-62
2022/02/26 01:25:30;;;;;;;0.60;0.60;;;;;;;2.02;77.00;98202.53;29373;274;63009;-62
2022/02/26 01:26:02;;;;;;;0.60;0.60;;;;;;;2.00;77.08;98199.22;29373;199;63005;-62
2022/02/26 01:26:36;;;;;;;0.60;0.60;;;;;;;1.99;77.15;98201.06;29373;223;63009;-55
2022/02/26 01:27:08;;;;;;;0.60;0.60;;;;;;;1.99;76.83;98198.41;29373;228;63008;-63
2022/02/26 01:27:39;;;;;;;0.62;0.62;;;;;;;2.04;76.91;98199.63;29371;216;64009;-60
2022/02/26 01:28:10;;;;;;;5.75;5.45;;;;;;;2.04;77.00;98199.63;29373;248;63005;-59
2022/02/26 01:28:42;;;;;;;0.60;0.60;;;;;;;2.03;77.01;98206.03;29373;205;63009;-61
2022/02/26 01:29:14;;;;;;;0.60;0.60;;;;;;;2.01;77.12;98207.06;29373;228;63004;-51
2022/02/26 01:29:46;;;;;;;0.60;0.60;;;;;;;2.00;76.79;98202.72;29371;225;64009;-63
2022/02/26 01:30:18;;;;;;;0.60;0.60;;;;;;;1.98;76.85;98202.09;29373;227;63004;-63
2022/02/26 01:30:51;;;;;;;0.60;0.60;;;;;;;2.00;77.10;98208.06;29373;256;63009;-57
2022/02/26 01:31:26;;;;;;;0.60;0.60;;;;;;;1.99;76.91;98201.06;29373;221;63004;-60
2022/02/26 01:32:00;;;;;;;0.60;0.60;;;;;;;1.97;77.25;98199.63;29373;280;63008;-60
2022/02/26 01:32:32;;;;;;;0.60;0.60;;;;;;;1.97;77.28;98203.13;29371;259;64005;-62
2022/02/26 01:33:04;;;;;;;1.25;1.25;;;;;;;1.98;77.33;98201.28;29373;271;63009;-63
2022/02/26 01:33:36;;;;;;;0.60;0.60;;;;;;;1.99;77.18;98205.59;29373;206;63005;-63
2022/02/26 01:34:09;;;;;;;0.60;0.60;;;;;;;2.01;76.89;98207.06;29373;265;63009;-57
2022/02/26 01:34:41;;;;;;;1.37;1.27;;;;;;;1.97;76.91;98200.47;29373;205;63005;-62
2022/02/26 01:35:13;;;;;;;0.60;0.60;;;;;;;1.94;77.32;98200.88;29373;285;63009;-64
2022/02/26 01:35:45;;;;;;;0.80;0.80;;;;;;;1.95;77.14;98210.53;29373;268;63005;-60
2022/02/26 01:36:17;;;;;;;0.60;0.60;;;;;;;1.98;77.14;98207.47;29373;246;63009;-58
2022/02/26 01:36:50;;;;;;;0.60;0.60;;;;;;;2.00;76.85;98205.41;29373;253;63004;-55
2022/02/26 01:37:22;;;;;;;0.60;0.60;;;;;;;2.05;76.86;98206.62;29373;246;63009;-58
2022/02/26 01:37:53;;;;;;;0.60;0.60;;;;;;;2.03;76.92;98203.34;29371;223;64004;-65
2022/02/26 01:38:25;;;;;;;0.60;0.60;;;;;;;2.00;76.76;98205.41;29371;203;64009;-57
2022/02/26 01:39:01;;;;;;;0.60;0.60;;;;;;;1.96;76.78;98209.53;29373;204;63004;-62
2022/02/26 01:39:35;;;;;;;0.60;0.60;;;;;;;1.97;77.21;98199.63;29373;205;63008;-56
2022/02/26 01:40:08;;;;;;;0.60;0.60;;;;;;;1.98;77.26;98201.28;29373;264;63005;-58
2022/02/26 01:40:40;;;;;;;0.65;0.65;;;;;;;1.96;77.29;98209.53;29373;237;63009;-68
2022/02/26 01:41:11;;;;;;;0.60;0.60;;;;;;;1.93;77.14;98204.56;29372;198;63005;-67
2022/02/26 01:41:43;;;;;;;0.60;0.60;;;;;;;1.90;77.25;98201.47;29373;206;63009;-65
2022/02/26 01:42:17;;;;;;;0.60;0.60;;;;;;;1.87;77.57;98210.75;29373;258;63005;-64
2022/02/26 01:42:57;;;;;;;0.60;0.60;;;;;;;1.88;77.72;98207.03;29373;219;63009;-68
2022/02/26 01:43:33;;;;;;;0.60;0.60;;;;;;;1.94;77.52;98206.22;29393;210;64005;-60
2022/02/26 01:44:06;;;;;;;0.60;0.60;;;;;;;1.99;77.22;98208.28;29395;218;63009;-63
2022/02/26 01:44:49;;;;;;;0.60;0.60;;;;;;;1.97;77.37;98205.00;29371;246;64004;-63
2022/02/26 01:45:23;;;;;;;1.17;1.17;;;;;;;1.96;77.35;98204.16;29372;225;63009;-67
2022/02/26 01:45:55;;;;;;;0.60;0.60;;;;;;;1.95;77.20;98207.03;29373;286;63004;-58
2022/02/26 01:46:27;;;;;;;0.60;0.60;;;;;;;1.94;77.50;98208.91;29373;212;63020;-60
2022/02/26 01:46:59;;;;;;;0.70;0.70;;;;;;;1.95;77.03;98202.50;29373;240;63010;-62
2022/02/26 01:47:33;;;;;;;0.60;0.60;;;;;;;1.94;77.37;98206.22;29373;267;63009;-65
2022/02/26 01:48:05;;;;;;;0.80;0.80;;;;;;;1.96;77.11;98204.16;29373;253;63005;-59
2022/02/26 01:48:37;;;;;;;0.60;0.60;;;;;;;2.01;77.10;98206.22;29373;219;63009;-57
2022/02/26 01:49:08;;;;;;;0.60;0.60;;;;;;;2.00;77.06;98200.03;29373;218;63005;-58
2022/02/26 01:49:41;;;;;;;0.60;0.60;;;;;;;1.98;77.30;98201.28;29373;220;63009;-65
2022/02/26 01:50:16;;;;;;;0.60;0.60;;;;;;;1.95;77.37;98197.16;29371;220;64005;-64
2022/02/26 01:50:50;;;;;;;0.70;0.70;;;;;;;1.91;77.53;98201.28;29373;198;63009;-59
2022/02/26 01:51:25;;;;;;;0.60;0.60;;;;;;;1.92;77.40;98200.25;29373;245;63005;-61
2022/02/26 01:51:57;;;;;;;0.60;0.60;;;;;;;1.93;77.62;98198.41;29373;231;63009;-59
2022/02/26 01:52:28;;;;;;;0.60;0.60;;;;;;;1.94;77.21;98194.69;29373;222;63004;-63
2022/02/26 01:53:00;;;;;;;0.60;0.60;;;;;;;1.91;77.43;98195.91;29373;236;63009;-64
2022/02/26 01:53:32;;;;;;;1.35;1.17;;;;;;;1.92;77.47;98197.56;29373;233;63004;-60
2022/02/26 01:54:06;;;;;;;0.60;0.60;;;;;;;1.92;77.58;98199.41;29373;210;63008;-62
2022/02/26 01:54:39;;;;;;;0.60;0.60;;;;;;;1.91;77.50;98198.59;29373;221;63004;-61
2022/02/26 01:55:10;;;;;;;0.60;0.60;;;;;;;1.89;77.59;98203.34;29371;247;64009;-65
2022/02/26 01:55:42;;;;;;;0.60;0.60;;;;;;;1.91;77.41;98195.91;29373;204;63005;-58
2022/02/26 01:56:13;;;;;;;0.60;0.60;;;;;;;1.92;77.42;98196.75;29373;259;63009;-58
2022/02/26 01:56:48;;;;;;;0.60;0.60;;;;;;;1.93;77.22;98201.91;29372;216;63005;-61
2022/02/26 01:57:21;;;;;;;0.60;0.60;;;;;;;1.90;77.52;98193.44;29373;247;63009;-60
2022/02/26 01:57:52;;;;;;;0.60;0.60;;;;;;;1.86;77.79;98197.56;29373;234;63005;-64
2022/02/26 01:58:25;;;;;;;0.60;0.60;;;;;;;1.86;77.80;98197.56;29373;209;63009;-64
2022/02/26 01:58:59;;;;;;;0.60;0.60;;;;;;;1.86;77.80;98195.72;29373;214;63005;-59
2022/02/26 01:59:31;;;;;;;0.60;0.60;;;;;;;1.88;77.42;98193.66;29373;203;63009;-59
2022/02/26 02:00:07;;;;;;;4.28;1.75;;;;;;;1.91;77.10;98209.31;29373;202;63004;-63
2022/02/26 02:00:41;;;;;;;0.60;0.60;;;;;;;1.91;77.12;98195.91;29371;215;64009;-64
2022/02/26 02:01:13;;;;;;;0.60;0.60;;;;;;;1.92;77.12;98199.41;29373;248;63004;-65
2022/02/26 02:01:44;;;;;;;0.70;0.70;;;;;;;1.93;76.95;98201.06;29373;201;63008;-60
2022/02/26 02:02:15;;;;;;;0.60;0.60;;;;;;;1.95;76.59;98199.84;29373;226;63004;-59
2022/02/26 02:02:48;;;;;;;0.70;0.70;;;;;;;1.93;76.81;98193.88;29373;221;63009;-58
2022/02/26 02:03:19;;;;;;;0.60;0.60;;;;;;;1.93;76.68;98193.03;29373;207;63005;-59
2022/02/26 02:03:51;;;;;;;0.73;0.73;;;;;;;1.94;76.65;98195.50;29373;205;63009;-62
2022/02/26 02:04:23;;;;;;;0.60;0.60;;;;;;;1.95;76.59;98191.81;29373;227;63005;-65
2022/02/26 02:04:56;;;;;;;0.60;0.60;;;;;;;1.93;76.98;98199.22;29373;220;63009;-65
2022/02/26 02:05:33;;;;;;;0.70;0.70;;;;;;;1.96;76.76;98200.66;29371;274;64005;-64
2022/02/26 02:06:06;;;;;;;0.60;0.60;;;;;;;1.94;76.91;98194.69;29373;244;63009;-63
2022/02/26 02:06:39;;;;;;;2.10;2.00;;;;;;;1.91;76.97;98200.44;29373;212;63004;-62
2022/02/26 02:07:11;;;;;;;0.60;0.60;;;;;;;1.87;77.36;98194.69;29373;281;63009;-67
2022/02/26 02:07:43;;;;;;;0.60;0.60;;;;;;;1.87;77.15;98197.34;29373;216;63004;-66
2022/02/26 02:08:16;;;;;;;0.60;0.60;;;;;;;1.85;77.34;98196.75;29373;197;63008;-65
2022/02/26 02:08:53;;;;;;;0.60;0.60;;;;;;;1.86;77.45;98202.91;29373;201;63004;-63
2022/02/26 02:09:26;;;;;;;0.60;0.60;;;;;;;1.82;77.77;98194.47;29373;250;63008;-67
2022/02/26 02:09:57;;;;;;;0.60;0.60;;;;;;;1.85;77.47;98190.56;29371;265;64005;-58
2022/02/26 02:10:28;;;;;;;0.60;0.60;;;;;;;1.82;77.68;98196.31;29373;237;63009;-63
2022/02/26 02:11:01;;;;;;;0.60;0.60;;;;;;;1.80;77.73;98193.84;29373;209;63005;-62
2022/02/26 02:11:35;;;;;;;0.70;0.70;;;;;;;1.80;77.80;98193.84;29373;275;63009;-59
2022/02/26 02:12:08;;;;;;;0.70;0.70;;;;;;;1.82;77.70;98196.31;29373;247;63005;-63
2022/02/26 02:12:40;;;;;;;0.62;0.62;;;;;;;1.78;77.93;98203.94;29373;298;63009;-63
2022/02/26 02:13:13;;;;;;;0.60;0.60;;;;;;;1.80;77.79;98193.84;29373;197;63005;-66
2022/02/26 02:13:46;;;;;;;0.60;0.60;;;;;;;1.81;77.90;98195.50;29373;224;63009;-65
2022/02/26 02:14:18;;;;;;;0.60;0.60;;;;;;;1.78;77.79;98190.56;29373;205;63004;-62
2022/02/26 02:14:52;;;;;;;0.60;0.60;;;;;;;1.79;78.05;98197.56;29373;211;63009;-64
2022/02/26 02:15:53;;;;;;;0.60;0.60;;;;;;;1.81;77.89;98198.19;29371;200;64004;-65
2022/02/26 02:16:25;;;;;;;0.60;0.60;;;;;;;1.78;77.82;98201.25;29395;225;63008;-63
2022/02/26 02:16:58;;;;;;;0.68;0.68;;;;;;;1.77;77.77;98198.78;29395;256;63005;-63
2022/02/26 02:17:29;;;;;;;0.60;0.60;;;;;;;1.76;78.08;98202.50;29372;218;63009;-59
2022/02/26 02:18:01;;;;;;;0.60;0.60;;;;;;;1.79;77.85;98196.72;29373;273;63005;-62
2022/02/26 02:18:42;;;;;;;0.60;0.60;;;;;;;1.81;77.99;98194.69;29373;200;63009;-68
2022/02/26 02:19:14;;;;;;;0.62;0.62;;;;;;;1.82;77.74;98196.31;29395;223;63005;-59
2022/02/26 02:19:46;;;;;;;0.60;0.60;;;;;;;1.82;77.65;98197.16;29395;219;63005;-61
2022/02/26 02:20:18;;;;;;;0.60;0.60;;;;;;;1.84;77.63;98195.09;29373;223;63005;-65
2022/02/26 02:20:50;;;;;;;0.60;0.60;;;;;;;1.87;77.52;98200.03;29371;274;64009;-62
2022/02/26 02:21:22;;;;;;;0.60;0.60;;;;;;;1.86;77.25;98198.38;29373;221;63008;-64
2022/02/26 02:21:54;;;;;;;0.60;0.60;;;;;;;1.83;77.78;98203.31;29373;283;63009;-58
2022/02/26 02:22:25;;;;;;;0.60;0.60;;;;;;;1.77;77.52;98204.97;29373;249;63004;-62
2022/02/26 02:22:56;;;;;;;0.60;0.60;;;;;;;1.80;77.74;98209.09;29373;226;63013;-65
2022/02/26 02:23:27;;;;;;;0.60;0.60;;;;;;;1.78;78.00;98200.44;29373;204;63004;-61
2022/02/26 02:24:01;;;;;;;0.60;0.60;;;;;;;1.78;77.77;98206.59;29373;236;63019;-64
2022/02/26 02:24:32;;;;;;;0.65;0.65;;;;;;;1.75;77.83;98204.34;29372;225;63005;-67
2022/02/26 02:25:05;;;;;;;0.60;0.60;;;;;;;1.73;78.01;98200.25;29373;202;63009;-65
2022/02/26 02:25:37;;;;;;;0.60;0.60;;;;;;;1.75;78.11;98207.03;29372;256;63005;-56
2022/02/26 02:26:10;;;;;;;0.60;0.60;;;;;;;1.76;78.19;98203.31;29371;250;64009;-61
2022/02/26 02:26:43;;;;;;;1.05;1.05;;;;;;;1.76;78.20;98195.28;29371;211;64005;-63
2022/02/26 02:27:16;;;;;;;0.60;0.60;;;;;;;1.76;78.07;98202.50;29373;214;63009;-66
2022/02/26 02:27:51;;;;;;;0.60;0.60;;;;;;;1.78;78.18;98206.59;29373;254;63005;-62
2022/02/26 02:28:23;;;;;;;0.60;0.60;;;;;;;1.77;78.19;98204.97;29373;202;63009;-66
2022/02/26 02:28:55;;;;;;;0.60;0.60;;;;;;;1.76;77.96;98213.19;29373;233;63004;-64
2022/02/26 02:29:29;;;;;;;0.60;0.60;;;;;;;1.73;78.30;98214.47;29373;279;63009;-67
2022/02/26 02:30:02;;;;;;;0.60;0.60;;;;;;;1.73;78.35;98213.62;29373;231;63004;-61
2022/02/26 02:30:34;;;;;;;0.60;0.60;;;;;;;1.75;78.24;98211.53;29373;213;63009;-62
2022/02/26 02:31:09;;;;;;;0.60;0.60;;;;;;;1.77;78.27;98215.66;29373;206;63004;-60
2022/02/26 02:31:41;;;;;;;0.60;0.60;;;;;;;1.77;78.20;98215.66;29373;221;63008;-62
2022/02/26 02:32:13;;;;;;;0.60;0.60;;;;;;;1.74;78.19;98216.06;29371;247;64005;-64
2022/02/26 02:32:46;;;;;;;0.60;0.60;;;;;;;1.74;78.46;98209.91;29373;206;63009;-65
2022/02/26 02:33:19;;;;;;;0.60;0.60;;;;;;;1.73;78.50;98213.62;29373;235;63005;-63
2022/02/26 02:33:50;;;;;;;0.60;0.60;;;;;;;1.71;78.56;98218.34;29373;202;63009;-65
2022/02/26 02:34:23;;;;;;;0.60;0.60;;;;;;;1.70;78.45;98209.50;29373;251;63005;-57
2022/02/26 02:34:54;;;;;;;0.60;0.60;;;;;;;1.77;78.18;98210.31;29373;222;63009;-66
2022/02/26 02:35:37;;;;;;;0.60;0.60;;;;;;;1.80;78.13;98217.94;29373;216;63005;-63
2022/02/26 02:36:09;;;;;;;0.60;0.60;;;;;;;1.80;78.10;98209.91;29373;228;63009;-56
2022/02/26 02:36:44;;;;;;;0.60;0.60;;;;;;;1.76;78.09;98213.19;29373;228;63004;-65
2022/02/26 02:37:17;;;;;;;0.70;0.70;;;;;;;1.77;77.96;98213.00;29371;263;64009;-62
2022/02/26 02:37:55;;;;;;;0.60;0.60;;;;;;;1.80;77.91;98209.91;29373;206;63004;-58
2022/02/26 02:38:32;;;;;;;0.62;0.62;;;;;;;1.78;78.21;98211.97;29373;229;63008;-62
2022/02/26 02:39:05;;;;;;;0.70;0.70;;;;;;;1.74;78.10;98215.25;29373;204;63004;-62
2022/02/26 02:39:37;;;;;;;0.70;0.70;;;;;;;1.75;78.27;98212.38;29373;236;63009;-60
2022/02/26 02:40:10;;;;;;;0.60;0.60;;;;;;;1.74;78.28;98210.72;29373;236;63005;-64